Time;durP1;ratioP1;P1;durP2;ratioP2;P2;SDS_P1;SDS_P2;PMS_P1;PMS_P2;Temp;Humidity;BMP_temperature;BMP_pressure;BME280_temperature;BME280_humidity;BME280_pressure;Samples;Min_cycle;Max_cycle;Signal;HPM_P1;HPM_P2
2021/01/27 00:00:27;;;;;;;23.20;20.97;;;;;;;;;;5052849;28;20529;-66
2021/01/27 00:02:53;;;;;;;22.40;18.93;;;;;;;;;;5052192;28;20482;-66
2021/01/27 00:05:24;;;;;;;21.47;18.90;;;;;;;;;;5052694;28;20455;-67
2021/01/27 00:07:51;;;;;;;21.50;19.20;;;;;;;;;;5051966;28;20451;-67
2021/01/27 00:10:18;;;;;;;21.57;19.33;;;;;;;;;;5052314;28;20451;-66
2021/01/27 00:12:45;;;;;;;21.50;19.23;;;;;;;;;;5051840;28;20486;-67
2021/01/27 00:15:13;;;;;;;20.20;18.30;;;;;;;;;;5052470;28;20821;-67
2021/01/27 00:17:40;;;;;;;23.23;20.77;;;;;;;;;;5052195;28;20452;-67
2021/01/27 00:20:08;;;;;;;22.40;20.00;;;;;;;;;;5051636;28;20447;-67
2021/01/27 00:22:34;;;;;;;23.77;21.40;;;;;;;;;;5052650;28;20468;-67
2021/01/27 00:25:01;;;;;;;22.70;20.30;;;;;;;;;;5052324;28;20843;-66
2021/01/27 00:27:28;;;;;;;23.07;19.90;;;;;;;;;;5052820;28;20456;-67
2021/01/27 00:29:55;;;;;;;23.80;21.17;;;;;;;;;;5051802;28;20463;-66
2021/01/27 00:32:21;;;;;;;23.70;21.40;;;;;;;;;;5052181;28;20472;-67
2021/01/27 00:34:48;;;;;;;26.63;23.43;;;;;;;;;;5051463;28;20864;-66
2021/01/27 00:37:15;;;;;;;23.63;21.23;;;;;;;;;;5052202;28;20452;-67
2021/01/27 00:39:41;;;;;;;25.27;22.60;;;;;;;;;;5051685;28;20987;-67
2021/01/27 00:42:08;;;;;;;23.97;21.57;;;;;;;;;;5052058;28;20472;-67
2021/01/27 00:44:35;;;;;;;26.40;23.60;;;;;;;;;;5039168;28;20484;-67
2021/01/27 00:47:02;;;;;;;26.93;24.23;;;;;;;;;;5046054;28;20454;-67
2021/01/27 00:49:29;;;;;;;25.00;22.57;;;;;;;;;;5051454;28;20828;-67
2021/01/27 00:51:55;;;;;;;25.70;23.10;;;;;;;;;;5051775;28;20483;-67
2021/01/27 00:54:22;;;;;;;24.13;21.93;;;;;;;;;;5051483;28;20448;-67
2021/01/27 00:56:48;;;;;;;26.27;22.80;;;;;;;;;;5052029;28;20497;-67
2021/01/27 00:59:15;;;;;;;23.90;21.87;;;;;;;;;;5051174;28;20520;-67
2021/01/27 01:01:42;;;;;;;26.27;23.47;;;;;;;;;;5051294;28;20480;-67
2021/01/27 01:04:09;;;;;;;27.53;24.23;;;;;;;;;;5051580;28;20484;-67
2021/01/27 01:06:35;;;;;;;24.47;22.23;;;;;;;;;;5051825;28;20452;-67
2021/01/27 01:09:02;;;;;;;26.93;24.30;;;;;;;;;;5051099;28;20533;-67
2021/01/27 01:11:29;;;;;;;27.93;25.03;;;;;;;;;;5051612;28;20452;-67
2021/01/27 01:13:55;;;;;;;28.70;25.70;;;;;;;;;;5047968;28;20503;-67
2021/01/27 01:16:22;;;;;;;30.13;26.50;;;;;;;;;;5051391;28;20451;-67
2021/01/27 01:18:49;;;;;;;26.50;23.83;;;;;;;;;;5051502;28;20447;-68
2021/01/27 01:21:16;;;;;;;27.70;24.80;;;;;;;;;;5051249;28;20804;-66
2021/01/27 01:23:43;;;;;;;29.87;26.13;;;;;;;;;;5050993;28;20483;-67
2021/01/27 01:26:09;;;;;;;26.50;23.90;;;;;;;;;;5051366;28;20463;-67
2021/01/27 01:28:36;;;;;;;27.57;24.67;;;;;;;;;;5051599;28;20452;-67
2021/01/27 01:31:03;;;;;;;28.13;25.23;;;;;;;;;;5051437;28;20516;-67
2021/01/27 01:33:30;;;;;;;28.13;25.20;;;;;;;;;;5047888;28;20464;-67
2021/01/27 01:35:57;;;;;;;27.00;24.40;;;;;;;;;;5036573;28;20494;-67
2021/01/27 01:38:24;;;;;;;27.50;24.87;;;;;;;;;;5051421;28;20447;-67
2021/01/27 01:40:52;;;;;;;26.00;23.60;;;;;;;;;;5051451;28;20774;-68
2021/01/27 01:43:19;;;;;;;28.97;26.17;;;;;;;;;;5051913;28;20555;-66
2021/01/27 01:45:47;;;;;;;28.10;24.90;;;;;;;;;;5051539;28;20455;-67
2021/01/27 01:48:18;;;;;;;26.80;23.97;;;;;;;;;;5051429;28;20452;-67
2021/01/27 01:50:45;;;;;;;27.50;25.00;;;;;;;;;;5051070;28;20458;-67
2021/01/27 01:53:13;;;;;;;26.67;23.90;;;;;;;;;;5051494;28;20856;-67
2021/01/27 01:55:39;;;;;;;25.70;22.97;;;;;;;;;;5051919;28;20452;-67
2021/01/27 01:58:06;;;;;;;27.33;24.37;;;;;;;;;;5050602;28;20867;-67
2021/01/27 02:00:34;;;;;;;26.70;23.83;;;;;;;;;;5050704;28;20448;-68
2021/01/27 02:03:01;;;;;;;28.60;25.70;;;;;;;;;;5046700;28;20482;-67
2021/01/27 02:05:27;;;;;;;26.93;24.13;;;;;;;;;;5051622;28;21025;-68
2021/01/27 02:07:54;;;;;;;26.87;24.17;;;;;;;;;;5050718;28;20463;-69
2021/01/27 02:10:22;;;;;;;30.30;25.20;;;;;;;;;;5051110;28;20443;-68
2021/01/27 02:13:04;;;;;;;28.10;25.40;;;;;;;;;;5050477;28;21006;-68
2021/01/27 02:15:44;;;;;;;28.13;25.17;;;;;;;;;;5050950;28;20455;-68
2021/01/27 02:18:17;;;;;;;26.57;24.00;;;;;;;;;;5049490;28;20451;-68
2021/01/27 02:21:02;;;;;;;27.43;24.73;;;;;;;;;;5050704;28;20451;-68
2021/01/27 02:23:49;;;;;;;30.07;25.47;;;;;;;;;;5050575;28;20487;-68
2021/01/27 02:26:29;;;;;;;28.80;25.90;;;;;;;;;;5050070;28;20805;-68
2021/01/27 02:29:04;;;;;;;27.53;24.63;;;;;;;;;;5050416;28;20950;-67
2021/01/27 02:31:35;;;;;;;30.00;25.90;;;;;;;;;;5049827;28;20514;-68
2021/01/27 02:34:18;;;;;;;28.77;25.67;;;;;;;;;;5048285;28;20447;-68
2021/01/27 02:36:46;;;;;;;31.13;27.60;;;;;;;;;;5050844;28;20448;-68
2021/01/27 02:39:16;;;;;;;30.53;27.37;;;;;;;;;;5050188;28;20794;-68
2021/01/27 02:41:48;;;;;;;31.37;27.83;;;;;;;;;;5050584;28;20467;-68
2021/01/27 02:44:17;;;;;;;33.10;27.90;;;;;;;;;;5050470;28;20480;-68
2021/01/27 02:46:45;;;;;;;28.80;25.80;;;;;;;;;;5054021;28;20525;-69
2021/01/27 02:49:14;;;;;;;29.07;26.07;;;;;;;;;;5053664;28;20448;-68
2021/01/27 02:51:45;;;;;;;33.33;26.50;;;;;;;;;;5053434;28;20468;-68
2021/01/27 02:54:14;;;;;;;27.97;25.27;;;;;;;;;;5053691;28;20444;-69
2021/01/27 02:56:43;;;;;;;31.50;28.37;;;;;;;;;;5043285;28;20992;-68
2021/01/27 02:59:13;;;;;;;29.53;26.40;;;;;;;;;;5053354;28;20455;-68
2021/01/27 03:01:41;;;;;;;30.37;26.50;;;;;;;;;;5053893;28;20487;-68
2021/01/27 03:04:11;;;;;;;31.23;27.37;;;;;;;;;;5053593;28;20502;-68
2021/01/27 03:06:38;;;;;;;30.67;25.93;;;;;;;;;;5053991;28;20962;-67
2021/01/27 03:09:07;;;;;;;30.53;27.40;;;;;;;;;;5052905;28;20452;-68
2021/01/27 03:11:35;;;;;;;28.63;25.70;;;;;;;;;;5054223;28;20855;-67
2021/01/27 03:14:02;;;;;;;31.20;27.90;;;;;;;;;;5056163;28;20448;-68
2021/01/27 03:16:30;;;;;;;27.53;24.70;;;;;;;;;;5055393;28;20479;-68
2021/01/27 03:19:12;;;;;;;30.47;27.20;;;;;;;;;;5054239;28;20447;-67
2021/01/27 03:21:41;;;;;;;31.93;28.10;;;;;;;;;;5052878;28;20552;-67
2021/01/27 03:24:10;;;;;;;31.37;28.07;;;;;;;;;;5052474;28;20876;-68
2021/01/27 03:26:41;;;;;;;34.23;30.37;;;;;;;;;;5053236;28;20459;-68
2021/01/27 03:29:11;;;;;;;34.67;26.37;;;;;;;;;;5052852;28;20440;-68
2021/01/27 03:31:38;;;;;;;34.53;29.40;;;;;;;;;;5053611;28;20471;-67
2021/01/27 03:34:07;;;;;;;32.57;28.83;;;;;;;;;;5052542;28;20514;-69
2021/01/27 03:36:35;;;;;;;35.13;29.00;;;;;;;;;;5053446;28;20452;-68
2021/01/27 03:39:03;;;;;;;33.03;29.63;;;;;;;;;;5053033;28;20448;-68
2021/01/27 03:41:30;;;;;;;33.53;30.03;;;;;;;;;;5051957;28;20466;-68
2021/01/27 03:44:01;;;;;;;34.27;30.13;;;;;;;;;;5052778;28;20480;-68
2021/01/27 03:46:29;;;;;;;33.77;30.23;;;;;;;;;;5053163;28;20452;-68
2021/01/27 03:48:58;;;;;;;35.87;31.97;;;;;;;;;;5052141;28;20451;-69
2021/01/27 03:51:25;;;;;;;36.13;32.23;;;;;;;;;;5052878;28;20452;-68
2021/01/27 03:53:52;;;;;;;37.93;32.03;;;;;;;;;;5052534;28;20985;-68
2021/01/27 03:56:22;;;;;;;39.73;35.43;;;;;;;;;;5052322;28;20459;-68
2021/01/27 03:58:48;;;;;;;41.87;34.50;;;;;;;;;;5051775;28;20456;-69
2021/01/27 04:01:17;;;;;;;42.23;35.70;;;;;;;;;;5052233;28;20456;-69
2021/01/27 04:03:44;;;;;;;43.33;36.00;;;;;;;;;;5052364;28;20488;-68
2021/01/27 04:06:11;;;;;;;47.30;42.30;;;;;;;;;;5052220;28;20459;-68
2021/01/27 04:08:38;;;;;;;47.40;42.40;;;;;;;;;;5052235;28;20447;-67
2021/01/27 04:11:05;;;;;;;45.43;40.70;;;;;;;;;;5052433;28;20451;-68
2021/01/27 04:13:32;;;;;;;48.23;43.23;;;;;;;;;;5052121;28;20468;-68
2021/01/27 04:15:59;;;;;;;48.93;44.10;;;;;;;;;;5050155;28;20451;-68
2021/01/27 04:18:27;;;;;;;48.57;43.50;;;;;;;;;;5052042;28;20833;-67
2021/01/27 04:20:53;;;;;;;52.07;46.97;;;;;;;;;;5052317;28;20448;-68
2021/01/27 04:23:20;;;;;;;48.93;43.80;;;;;;;;;;5051639;28;20491;-68
2021/01/27 04:25:47;;;;;;;49.83;44.53;;;;;;;;;;5052009;28;20452;-68
2021/01/27 04:28:14;;;;;;;50.93;45.53;;;;;;;;;;5051508;28;20451;-67
2021/01/27 04:30:40;;;;;;;50.20;45.00;;;;;;;;;;5052366;28;20978;-70
2021/01/27 04:33:08;;;;;;;50.57;45.40;;;;;;;;;;5038125;28;21014;-68
2021/01/27 04:35:36;;;;;;;50.50;45.10;;;;;;;;;;5051296;28;20447;-67
2021/01/27 04:38:03;;;;;;;49.80;44.83;;;;;;;;;;5051248;28;20452;-68
2021/01/27 04:40:31;;;;;;;50.73;45.73;;;;;;;;;;5051708;28;20982;-69
2021/01/27 04:42:58;;;;;;;49.40;44.53;;;;;;;;;;5051700;28;20471;-68
2021/01/27 04:45:25;;;;;;;51.57;46.27;;;;;;;;;;5051122;28;20487;-67
2021/01/27 04:47:54;;;;;;;51.47;46.67;;;;;;;;;;5051617;28;20459;-67
2021/01/27 04:50:23;;;;;;;51.90;46.50;;;;;;;;;;5051219;28;20509;-67
2021/01/27 04:53:03;;;;;;;49.93;45.07;;;;;;;;;;5050356;28;20521;-67
2021/01/27 04:55:37;;;;;;;50.03;45.23;;;;;;;;;;5051397;28;20436;-67
2021/01/27 04:58:16;;;;;;;51.90;46.70;;;;;;;;;;5051550;28;20447;-68
2021/01/27 05:00:45;;;;;;;51.20;46.03;;;;;;;;;;5051236;28;20592;-67
2021/01/27 05:03:34;;;;;;;52.27;47.27;;;;;;;;;;5051788;28;20480;-68
2021/01/27 05:06:03;;;;;;;55.53;50.07;;;;;;;;;;5045658;28;20513;-67
2021/01/27 05:08:32;;;;;;;56.17;50.40;;;;;;;;;;5050529;28;20501;-68
2021/01/27 05:11:01;;;;;;;56.60;50.57;;;;;;;;;;5050750;28;20466;-67
2021/01/27 05:13:31;;;;;;;61.10;54.63;;;;;;;;;;5051673;28;20839;-68
2021/01/27 05:15:58;;;;;;;59.00;52.80;;;;;;;;;;5051204;28;20460;-67
2021/01/27 05:18:25;;;;;;;56.40;50.40;;;;;;;;;;5051210;28;20460;-67
2021/01/27 05:20:52;;;;;;;58.03;51.70;;;;;;;;;;5051064;28;20459;-67
2021/01/27 05:23:19;;;;;;;58.03;51.90;;;;;;;;;;5050909;28;20994;-68
2021/01/27 05:25:48;;;;;;;60.17;53.77;;;;;;;;;;5050008;28;20479;-67
2021/01/27 05:28:17;;;;;;;59.07;53.07;;;;;;;;;;5050595;28;20459;-68
2021/01/27 05:30:47;;;;;;;57.70;51.70;;;;;;;;;;5051398;28;20447;-67
2021/01/27 05:33:13;;;;;;;55.87;50.17;;;;;;;;;;5050851;28;20480;-68
2021/01/27 05:35:40;;;;;;;60.43;54.00;;;;;;;;;;5051044;28;20443;-67
2021/01/27 05:38:24;;;;;;;57.00;51.00;;;;;;;;;;5050388;28;20483;-67
2021/01/27 05:40:52;;;;;;;53.67;47.80;;;;;;;;;;5050008;28;20454;-68
2021/01/27 05:43:23;;;;;;;58.63;52.27;;;;;;;;;;5050716;28;20468;-67
2021/01/27 05:45:51;;;;;;;60.57;54.03;;;;;;;;;;5039406;28;20479;-68
2021/01/27 05:48:27;;;;;;;56.07;50.37;;;;;;;;;;5050592;28;20451;-67
2021/01/27 05:50:55;;;;;;;62.07;54.20;;;;;;;;;;5050758;28;20469;-67
2021/01/27 05:53:23;;;;;;;56.00;50.60;;;;;;;;;;5050461;28;20468;-68
2021/01/27 05:56:01;;;;;;;56.63;50.83;;;;;;;;;;5051088;28;20458;-67
2021/01/27 05:58:29;;;;;;;55.80;50.30;;;;;;;;;;5048842;28;20943;-67
2021/01/27 06:01:13;;;;;;;54.10;48.87;;;;;;;;;;5050575;28;20460;-67
2021/01/27 06:03:39;;;;;;;59.47;53.67;;;;;;;;;;5050407;28;20517;-67
2021/01/27 06:06:09;;;;;;;55.83;50.23;;;;;;;;;;5051057;28;20857;-67
2021/01/27 06:08:36;;;;;;;54.13;48.57;;;;;;;;;;5050008;28;21046;-67
2021/01/27 06:11:12;;;;;;;54.70;49.60;;;;;;;;;;5049901;28;20443;-67
2021/01/27 06:13:38;;;;;;;57.23;51.43;;;;;;;;;;5049837;28;20447;-68
2021/01/27 06:16:16;;;;;;;54.57;49.10;;;;;;;;;;5043052;28;20455;-67
2021/01/27 06:18:42;;;;;;;56.33;50.83;;;;;;;;;;5051214;28;20436;-67
2021/01/27 06:21:32;;;;;;;55.00;49.50;;;;;;;;;;5054177;28;20455;-68
2021/01/27 06:24:11;;;;;;;58.23;52.57;;;;;;;;;;5054920;28;20487;-67
2021/01/27 06:26:53;;;;;;;56.83;50.90;;;;;;;;;;5054039;28;20444;-67
2021/01/27 06:29:23;;;;;;;56.27;50.47;;;;;;;;;;5054451;28;20447;-68
2021/01/27 06:31:55;;;;;;;54.63;49.10;;;;;;;;;;5034734;28;20476;-67
2021/01/27 06:34:35;;;;;;;53.87;48.53;;;;;;;;;;5038434;28;20470;-68
2021/01/27 06:37:07;;;;;;;54.57;49.10;;;;;;;;;;5053883;28;20474;-67
2021/01/27 06:39:55;;;;;;;52.33;47.13;;;;;;;;;;5053806;28;20457;-68
2021/01/27 06:42:39;;;;;;;51.20;46.17;;;;;;;;;;5040704;28;20837;-67
2021/01/27 06:45:14;;;;;;;51.67;46.47;;;;;;;;;;5056424;28;20479;-68
2021/01/27 06:47:53;;;;;;;52.43;47.40;;;;;;;;;;5054017;28;20449;-68
2021/01/27 06:50:26;;;;;;;52.10;46.70;;;;;;;;;;5053878;28;20451;-67
2021/01/27 06:53:11;;;;;;;51.03;45.80;;;;;;;;;;5053937;28;20467;-68
2021/01/27 06:55:43;;;;;;;49.43;44.73;;;;;;;;;;5034231;28;20440;-68
2021/01/27 06:58:26;;;;;;;48.10;43.50;;;;;;;;;;5034817;28;20448;-69
2021/01/27 07:01:02;;;;;;;51.50;46.57;;;;;;;;;;5052308;28;20816;-68
2021/01/27 07:03:47;;;;;;;17.43;10.43;;;;;;;;;;5052882;28;20479;-69
2021/01/27 07:06:26;;;;;;;14.10;11.53;;;;;;;;;;5052607;28;20529;-69
2021/01/27 07:09:11;;;;;;;15.27;11.20;;;;;;;;;;5051529;28;20934;-69
2021/01/27 07:11:45;;;;;;;15.33;11.17;;;;;;;;;;5053070;28;20463;-69
2021/01/27 07:14:29;;;;;;;17.93;16.40;;;;;;;;;;5047412;28;20445;-69
2021/01/27 07:17:01;;;;;;;12.47;11.17;;;;;;;;;;5038692;28;20439;-69
2021/01/27 07:19:35;;;;;;;11.80;10.73;;;;;;;;;;5053654;28;20451;-69
2021/01/27 07:22:07;;;;;;;12.50;11.37;;;;;;;;;;5054259;28;20467;-69
2021/01/27 07:24:35;;;;;;;11.13;10.03;;;;;;;;;;5052814;28;20482;-69
2021/01/27 07:27:04;;;;;;;11.10;10.10;;;;;;;;;;5053370;28;20452;-69
2021/01/27 07:29:33;;;;;;;10.03;9.00;;;;;;;;;;5053180;28;20459;-69
2021/01/27 07:32:04;;;;;;;11.63;10.60;;;;;;;;;;5052085;28;20472;-69
2021/01/27 07:34:34;;;;;;;9.93;9.03;;;;;;;;;;5052298;28;20452;-70
2021/01/27 07:37:07;;;;;;;9.57;8.77;;;;;;;;;;5052847;28;20451;-69
2021/01/27 07:39:40;;;;;;;9.57;8.47;;;;;;;;;;5052183;28;20950;-69
2021/01/27 07:42:09;;;;;;;9.10;8.30;;;;;;;;;;5053362;28;20475;-70
2021/01/27 07:44:36;;;;;;;11.83;10.83;;;;;;;;;;5053651;28;20487;-69
2021/01/27 07:47:07;;;;;;;10.67;9.63;;;;;;;;;;5053116;28;20455;-69
2021/01/27 07:49:42;;;;;;;9.80;8.90;;;;;;;;;;5049093;28;20460;-70
2021/01/27 07:52:13;;;;;;;11.20;10.20;;;;;;;;;;5052562;28;20715;-69
2021/01/27 07:54:41;;;;;;;9.80;9.00;;;;;;;;;;5053310;28;20508;-70
2021/01/27 07:57:14;;;;;;;9.53;8.63;;;;;;;;;;5052505;28;20955;-69
2021/01/27 07:59:43;;;;;;;8.93;8.13;;;;;;;;;;5049539;28;20455;-69
2021/01/27 08:02:13;;;;;;;10.90;9.90;;;;;;;;;;5051347;28;20541;-69
2021/01/27 08:04:42;;;;;;;11.03;10.03;;;;;;;;;;5052180;28;21013;-69
2021/01/27 08:07:18;;;;;;;11.97;10.90;;;;;;;;;;5051573;28;20509;-69
2021/01/27 08:09:44;;;;;;;9.90;9.00;;;;;;;;;;5052027;28;20458;-69
2021/01/27 08:12:12;;;;;;;10.47;9.43;;;;;;;;;;5045255;28;20473;-69
2021/01/27 08:14:58;;;;;;;34.87;32.00;;;;;;;;;;5049497;28;20455;-67
2021/01/27 08:17:43;;;;;;;37.20;33.83;;;;;;;;;;5052362;28;20443;-67
2021/01/27 08:20:20;;;;;;;38.00;34.40;;;;;;;;;;5047797;28;20460;-69
2021/01/27 08:22:48;;;;;;;40.13;36.53;;;;;;;;;;5042896;28;20471;-68
2021/01/27 08:25:30;;;;;;;42.93;38.53;;;;;;;;;;5051964;28;20513;-68
2021/01/27 08:28:16;;;;;;;43.23;39.03;;;;;;;;;;5044910;28;20448;-67
2021/01/27 08:30:44;;;;;;;42.67;38.73;;;;;;;;;;5039332;28;20794;-67
2021/01/27 08:33:28;;;;;;;41.70;37.60;;;;;;;;;;5047470;28;20464;-66
2021/01/27 08:35:57;;;;;;;37.07;33.50;;;;;;;;;;5053805;28;20443;-67
2021/01/27 08:38:28;;;;;;;36.13;32.97;;;;;;;;;;5040486;28;20452;-67
2021/01/27 08:40:55;;;;;;;36.03;32.83;;;;;;;;;;5047608;28;20451;-67
2021/01/27 08:43:26;;;;;;;35.53;32.30;;;;;;;;;;5046304;28;20488;-67
2021/01/27 08:45:53;;;;;;;33.37;30.33;;;;;;;;;;5049342;28;20479;-67
2021/01/27 08:48:34;;;;;;;34.83;31.53;;;;;;;;;;5049080;28;20451;-67
2021/01/27 08:51:01;;;;;;;33.60;30.60;;;;;;;;;;5048121;28;20871;-66
2021/01/27 08:53:29;;;;;;;33.13;30.20;;;;;;;;;;5048678;28;20464;-67
2021/01/27 08:55:57;;;;;;;31.80;29.03;;;;;;;;;;5048452;28;20443;-67
2021/01/27 08:58:25;;;;;;;32.27;29.43;;;;;;;;;;5051569;28;20443;-67
2021/01/27 09:00:54;;;;;;;35.20;32.00;;;;;;;;;;5051304;28;20824;-67
2021/01/27 09:03:39;;;;;;;36.40;33.37;;;;;;;;;;5051381;28;20533;-68
2021/01/27 09:06:06;;;;;;;34.27;31.20;;;;;;;;;;5051335;28;20484;-67
2021/01/27 09:08:33;;;;;;;33.87;30.53;;;;;;;;;;5051464;28;20452;-67
2021/01/27 09:11:02;;;;;;;31.13;28.43;;;;;;;;;;5051169;28;20491;-67
2021/01/27 09:13:33;;;;;;;29.37;26.80;;;;;;;;;;5051246;28;21000;-67
2021/01/27 09:16:03;;;;;;;29.80;27.20;;;;;;;;;;5051507;28;20789;-68
2021/01/27 09:18:29;;;;;;;29.63;26.97;;;;;;;;;;5051468;28;20451;-69
2021/01/27 09:21:03;;;;;;;28.07;25.57;;;;;;;;;;5051422;28;20456;-68
2021/01/27 09:23:30;;;;;;;25.83;23.57;;;;;;;;;;5051139;28;20468;-67
2021/01/27 09:26:00;;;;;;;29.03;26.50;;;;;;;;;;5051721;28;20483;-63
2021/01/27 09:28:28;;;;;;;27.70;25.17;;;;;;;;;;5051293;28;20448;-62
2021/01/27 09:30:55;;;;;;;25.83;23.63;;;;;;;;;;5050789;28;20487;-64
2021/01/27 09:33:32;;;;;;;24.03;22.13;;;;;;;;;;5042566;28;20478;-69
2021/01/27 09:36:07;;;;;;;25.90;23.80;;;;;;;;;;5031178;28;20820;-69
2021/01/27 09:38:34;;;;;;;26.23;23.93;;;;;;;;;;5032513;28;20523;-69
2021/01/27 09:41:02;;;;;;;24.27;22.37;;;;;;;;;;5050776;28;20836;-68
2021/01/27 09:43:33;;;;;;;22.70;20.80;;;;;;;;;;5051266;28;20468;-68
2021/01/27 09:46:16;;;;;;;20.70;18.90;;;;;;;;;;5051061;28;20483;-69
2021/01/27 09:48:44;;;;;;;20.30;18.37;;;;;;;;;;5051928;28;20459;-69
2021/01/27 09:51:13;;;;;;;20.60;18.60;;;;;;;;;;5050729;28;20516;-68
2021/01/27 09:53:40;;;;;;;18.20;16.60;;;;;;;;;;5050932;28;20451;-69
2021/01/27 09:56:07;;;;;;;18.87;17.13;;;;;;;;;;5053578;28;20527;-69
2021/01/27 09:58:38;;;;;;;16.53;15.23;;;;;;;;;;5052555;28;20471;-71
2021/01/27 10:01:06;;;;;;;17.37;15.77;;;;;;;;;;5053598;28;20500;-69
2021/01/27 10:03:35;;;;;;;15.23;13.90;;;;;;;;;;5053301;28;20481;-69
2021/01/27 10:06:03;;;;;;;16.30;14.80;;;;;;;;;;5054717;28;20479;-71
2021/01/27 10:08:31;;;;;;;12.43;11.33;;;;;;;;;;5051732;28;20463;-69
2021/01/27 10:11:03;;;;;;;14.20;12.97;;;;;;;;;;5055185;28;20459;-71
2021/01/27 10:13:32;;;;;;;13.93;12.47;;;;;;;;;;5055107;28;20464;-71
2021/01/27 10:16:03;;;;;;;12.97;11.77;;;;;;;;;;5054673;28;20479;-71
2021/01/27 10:18:31;;;;;;;13.10;11.90;;;;;;;;;;5054547;28;20501;-71
2021/01/27 10:21:01;;;;;;;12.37;11.17;;;;;;;;;;5054682;28;20455;-70
2021/01/27 10:23:36;;;;;;;12.13;11.03;;;;;;;;;;5052298;28;20525;-70
2021/01/27 10:26:17;;;;;;;12.23;11.23;;;;;;;;;;5053916;28;20479;-69
2021/01/27 10:28:44;;;;;;;13.23;12.13;;;;;;;;;;5054847;28;20496;-68
2021/01/27 10:31:10;;;;;;;12.83;11.60;;;;;;;;;;5054350;28;20452;-68
2021/01/27 10:33:41;;;;;;;13.07;12.03;;;;;;;;;;5042440;28;20502;-68
2021/01/27 10:36:38;;;;;;;12.70;11.60;;;;;;;;;;5053566;28;20447;-68
2021/01/27 10:39:20;;;;;;;13.57;12.30;;;;;;;;;;5010458;28;20492;-68
2021/01/27 10:41:47;;;;;;;12.93;11.63;;;;;;;;;;5048597;28;20490;-68
2021/01/27 10:44:21;;;;;;;13.40;12.20;;;;;;;;;;5055401;28;20876;-68
2021/01/27 10:46:49;;;;;;;11.63;10.60;;;;;;;;;;5048879;28;20947;-68
2021/01/27 10:49:15;;;;;;;14.13;11.90;;;;;;;;;;5052008;28;20459;-70
2021/01/27 10:51:42;;;;;;;11.83;10.67;;;;;;;;;;5053706;28;20492;-68
2021/01/27 10:54:09;;;;;;;12.03;10.93;;;;;;;;;;5053862;28;20498;-70
2021/01/27 10:56:37;;;;;;;12.13;10.93;;;;;;;;;;5049560;28;20467;-69
2021/01/27 10:59:03;;;;;;;13.90;12.70;;;;;;;;;;5053524;28;20452;-70
2021/01/27 11:01:30;;;;;;;12.43;11.43;;;;;;;;;;5053649;28;20452;-68
2021/01/27 11:03:57;;;;;;;12.90;11.80;;;;;;;;;;5053634;28;20455;-68
2021/01/27 11:06:23;;;;;;;12.33;11.20;;;;;;;;;;5051103;28;20866;-69
2021/01/27 11:08:50;;;;;;;14.17;12.93;;;;;;;;;;5047575;28;20468;-69
2021/01/27 11:11:17;;;;;;;13.17;11.97;;;;;;;;;;5050189;28;20455;-68
2021/01/27 11:13:45;;;;;;;12.93;11.87;;;;;;;;;;5051130;28;20467;-69
2021/01/27 11:16:12;;;;;;;12.97;11.80;;;;;;;;;;5055519;28;20534;-69
2021/01/27 11:18:38;;;;;;;13.57;12.27;;;;;;;;;;5052757;28;20512;-69
2021/01/27 11:21:06;;;;;;;13.10;11.77;;;;;;;;;;5049217;28;20561;-68
2021/01/27 11:23:32;;;;;;;13.33;12.23;;;;;;;;;;5044281;28;20916;-68
2021/01/27 11:25:59;;;;;;;14.13;12.93;;;;;;;;;;5046047;28;20537;-70
2021/01/27 11:28:26;;;;;;;13.17;11.77;;;;;;;;;;5048221;28;20468;-68
2021/01/27 11:30:54;;;;;;;12.67;11.77;;;;;;;;;;5046573;28;20463;-68
2021/01/27 11:33:21;;;;;;;12.87;11.67;;;;;;;;;;5049988;28;20495;-68
2021/01/27 11:35:47;;;;;;;13.13;11.90;;;;;;;;;;5053043;28;20459;-68
2021/01/27 11:38:14;;;;;;;13.17;11.97;;;;;;;;;;5052362;28;20460;-68
2021/01/27 11:40:41;;;;;;;12.60;11.50;;;;;;;;;;5050985;28;21045;-68
2021/01/27 11:43:07;;;;;;;12.30;11.20;;;;;;;;;;5047853;28;20475;-67
2021/01/27 11:45:34;;;;;;;12.30;11.03;;;;;;;;;;5045281;28;20475;-68
2021/01/27 11:48:02;;;;;;;12.40;11.20;;;;;;;;;;5045579;28;20475;-68
2021/01/27 11:50:30;;;;;;;13.73;12.53;;;;;;;;;;5046274;28;20468;-68
2021/01/27 11:52:57;;;;;;;12.63;11.60;;;;;;;;;;5048929;28;20538;-68
2021/01/27 11:55:23;;;;;;;12.73;11.63;;;;;;;;;;5047132;28;20456;-68
2021/01/27 11:57:50;;;;;;;12.40;11.40;;;;;;;;;;5045934;28;20469;-68
2021/01/27 12:00:18;;;;;;;12.30;11.20;;;;;;;;;;5045470;28;20464;-68
2021/01/27 12:02:45;;;;;;;10.90;9.90;;;;;;;;;;5043342;28;20487;-68
2021/01/27 12:05:13;;;;;;;12.23;11.23;;;;;;;;;;5045801;28;20495;-68
2021/01/27 12:07:40;;;;;;;11.90;10.87;;;;;;;;;;5045904;28;20470;-68
2021/01/27 12:10:07;;;;;;;11.83;10.83;;;;;;;;;;5046152;28;20455;-68
2021/01/27 12:12:34;;;;;;;11.03;10.13;;;;;;;;;;5047543;28;20475;-68
2021/01/27 12:15:00;;;;;;;11.20;10.30;;;;;;;;;;5047231;28;20470;-68
2021/01/27 12:17:27;;;;;;;9.73;8.73;;;;;;;;;;5037719;28;20440;-70
2021/01/27 12:19:54;;;;;;;11.00;9.90;;;;;;;;;;5048497;28;20955;-68
2021/01/27 12:22:21;;;;;;;10.13;9.23;;;;;;;;;;5045642;28;20532;-68
2021/01/27 12:24:48;;;;;;;10.90;9.80;;;;;;;;;;5045264;28;20489;-68
2021/01/27 12:27:14;;;;;;;9.80;9.00;;;;;;;;;;5044176;28;20459;-70
2021/01/27 12:29:41;;;;;;;10.10;9.20;;;;;;;;;;5047441;28;20824;-68
2021/01/27 12:32:08;;;;;;;10.00;9.00;;;;;;;;;;5048422;28;20491;-68
2021/01/27 12:34:34;;;;;;;9.77;8.97;;;;;;;;;;5047775;28;20456;-70
2021/01/27 12:37:01;;;;;;;10.20;9.23;;;;;;;;;;5047591;28;20463;-69
2021/01/27 12:39:29;;;;;;;9.70;8.80;;;;;;;;;;5051818;28;20534;-69
2021/01/27 12:41:56;;;;;;;9.20;8.40;;;;;;;;;;5051758;28;20490;-69
2021/01/27 12:44:22;;;;;;;10.30;9.30;;;;;;;;;;5052282;28;20447;-69
2021/01/27 12:46:49;;;;;;;6.57;6.00;;;;;;;;;;5051746;28;21117;-69
2021/01/27 12:49:16;;;;;;;9.20;8.40;;;;;;;;;;5051511;28;20452;-69
2021/01/27 12:51:43;;;;;;;10.33;8.60;;;;;;;;;;5051978;28;20535;-69
2021/01/27 12:54:09;;;;;;;9.67;8.97;;;;;;;;;;5051496;28;20546;-68
2021/01/27 12:56:37;;;;;;;9.20;8.50;;;;;;;;;;5049949;28;20947;-69
2021/01/27 12:59:03;;;;;;;9.33;8.53;;;;;;;;;;5051221;28;20440;-69
2021/01/27 13:01:30;;;;;;;9.60;8.90;;;;;;;;;;5050063;28;20456;-69
2021/01/27 13:03:57;;;;;;;8.10;7.43;;;;;;;;;;5039302;28;20470;-70
2021/01/27 13:06:23;;;;;;;9.47;8.40;;;;;;;;;;5044070;28;20483;-63
2021/01/27 13:08:51;;;;;;;9.23;8.53;;;;;;;;;;5049084;28;20874;-67
2021/01/27 13:11:17;;;;;;;9.17;8.57;;;;;;;;;;5043432;28;20457;-65
2021/01/27 13:13:45;;;;;;;10.40;9.60;;;;;;;;;;5046877;28;20901;-65
2021/01/27 13:16:11;;;;;;;8.90;8.30;;;;;;;;;;5051490;28;20444;-64
2021/01/27 13:18:38;;;;;;;9.00;8.30;;;;;;;;;;5050894;28;20474;-65
2021/01/27 13:21:06;;;;;;;9.77;8.97;;;;;;;;;;5049054;28;20467;-65
2021/01/27 13:23:33;;;;;;;9.80;9.00;;;;;;;;;;5051651;28;20476;-66
2021/01/27 13:25:59;;;;;;;8.87;8.07;;;;;;;;;;5050064;28;20479;-66
2021/01/27 13:28:26;;;;;;;9.00;8.30;;;;;;;;;;5049587;28;20546;-65
2021/01/27 13:30:53;;;;;;;9.80;8.57;;;;;;;;;;5052262;28;20456;-66
2021/01/27 13:33:20;;;;;;;9.07;8.37;;;;;;;;;;5051115;28;20980;-65
2021/01/27 13:35:46;;;;;;;9.80;9.07;;;;;;;;;;5051662;28;20439;-65
2021/01/27 13:38:14;;;;;;;9.03;8.43;;;;;;;;;;5050573;28;20493;-65
2021/01/27 13:40:40;;;;;;;9.50;8.80;;;;;;;;;;5053516;28;20448;-66
2021/01/27 13:43:07;;;;;;;9.87;9.00;;;;;;;;;;5051925;28;20487;-66
2021/01/27 13:45:34;;;;;;;9.07;8.27;;;;;;;;;;5051266;28;20483;-66
2021/01/27 13:48:01;;;;;;;9.87;9.07;;;;;;;;;;5047961;28;20468;-65
2021/01/27 13:50:29;;;;;;;9.50;8.80;;;;;;;;;;5051371;28;20463;-66
2021/01/27 13:52:56;;;;;;;9.40;8.60;;;;;;;;;;5052320;28;20467;-66
2021/01/27 13:55:22;;;;;;;10.37;9.40;;;;;;;;;;5050797;28;20464;-66
2021/01/27 13:57:49;;;;;;;9.90;9.10;;;;;;;;;;5050361;28;20471;-66
2021/01/27 14:00:18;;;;;;;9.53;8.53;;;;;;;;;;5050415;28;20495;-66
2021/01/27 14:02:44;;;;;;;10.07;9.17;;;;;;;;;;5051124;28;20479;-66
2021/01/27 14:05:18;;;;;;;9.33;8.43;;;;;;;;;;5050653;28;20494;-66
2021/01/27 14:07:45;;;;;;;9.60;8.73;;;;;;;;;;5050975;28;20443;-65
2021/01/27 14:10:13;;;;;;;9.40;8.60;;;;;;;;;;5050864;28;20474;-66
2021/01/27 14:12:39;;;;;;;9.37;8.77;;;;;;;;;;5045098;28;20480;-66
2021/01/27 14:15:07;;;;;;;11.00;10.10;;;;;;;;;;5047538;28;20460;-65
2021/01/27 14:17:33;;;;;;;10.50;9.70;;;;;;;;;;5050239;28;20846;-66
2021/01/27 14:22:41;;;;;;;10.03;9.23;;;;;;;;;;5023375;28;20492;-69
2021/01/27 14:25:11;;;;;;;10.53;9.73;;;;;;;;;;5017232;28;21003;-68
2021/01/27 14:27:38;;;;;;;9.63;8.93;;;;;;;;;;5031086;28;20472;-67
2021/01/27 14:30:05;;;;;;;10.40;9.60;;;;;;;;;;5031504;28;20456;-67
2021/01/27 14:32:31;;;;;;;10.73;9.93;;;;;;;;;;5010523;28;20466;-67
2021/01/27 14:34:58;;;;;;;10.30;9.40;;;;;;;;;;5011512;28;21031;-68
2021/01/27 14:37:25;;;;;;;10.20;9.40;;;;;;;;;;5012923;28;20540;-67